createdAt,value
2017-09-04T00:01:29.625Z,4.55
2017-09-04T00:03:57.236Z,3.87
2017-09-04T00:06:24.868Z,6.80
2017-09-04T00:08:52.632Z,4.80
2017-09-04T00:11:20.200Z,5.27
2017-09-04T00:13:47.755Z,4.67
2017-09-04T00:16:15.356Z,6.13
2017-09-04T00:18:42.976Z,4.90
2017-09-04T00:21:10.561Z,5.30
2017-09-04T00:23:38.163Z,3.70
2017-09-04T00:26:05.738Z,5.50
2017-09-04T00:28:33.317Z,5.57
2017-09-04T00:31:01.084Z,4.37
2017-09-04T00:33:28.816Z,4.63
2017-09-04T00:35:56.724Z,6.10
2017-09-04T00:38:24.564Z,5.30
2017-09-04T00:40:52.188Z,5.40
2017-09-04T00:43:19.799Z,3.30
2017-09-04T00:45:47.359Z,5.20
2017-09-04T00:48:16.803Z,3.90
2017-09-04T00:50:44.463Z,4.17
2017-09-04T00:53:12.812Z,3.40
2017-09-04T00:55:42.887Z,4.82
2017-09-04T00:58:12.696Z,5.73
2017-09-04T01:00:40.255Z,5.12
2017-09-04T01:03:08.876Z,4.30
2017-09-04T01:05:39.651Z,4.00
2017-09-04T01:08:16.261Z,4.80
2017-09-04T01:10:52.136Z,5.17
2017-09-04T01:13:25.442Z,4.80
2017-09-04T01:15:56.662Z,5.47
2017-09-04T01:18:24.928Z,6.60
2017-09-04T01:20:53.898Z,6.83
2017-09-04T01:23:21.539Z,6.73
2017-09-04T01:25:49.115Z,6.40
2017-09-04T01:28:17.478Z,7.30
2017-09-04T01:30:45.079Z,7.25
2017-09-04T01:33:15.380Z,8.53
2017-09-04T01:35:43.008Z,6.97
2017-09-04T01:38:10.596Z,6.03
2017-09-04T01:40:38.876Z,7.07
2017-09-04T01:43:07.223Z,8.57
2017-09-04T01:45:34.957Z,8.60
2017-09-04T01:48:02.539Z,7.07
2017-09-04T01:50:30.092Z,11.00
2017-09-04T01:52:57.649Z,6.07
2017-09-04T01:55:26.147Z,6.70
2017-09-04T01:57:53.713Z,7.00
2017-09-04T02:00:21.375Z,7.60
2017-09-04T02:02:49.039Z,6.27
2017-09-04T02:05:16.709Z,6.77
2017-09-04T02:07:44.272Z,6.53
2017-09-04T02:10:11.928Z,8.90
2017-09-04T02:12:39.510Z,6.83
2017-09-04T02:15:08.764Z,11.40
2017-09-04T02:17:36.354Z,12.87
2017-09-04T02:20:03.939Z,11.55
2017-09-04T02:22:32.546Z,9.87
2017-09-04T02:25:00.116Z,8.63
2017-09-04T02:27:29.753Z,12.10
2017-09-04T02:29:57.354Z,10.43
2017-09-04T02:32:26.670Z,14.30
2017-09-04T02:34:54.307Z,12.27
2017-09-04T02:37:22.645Z,10.63
2017-09-04T02:39:53.950Z,9.10
2017-09-04T02:42:21.526Z,15.47
2017-09-04T02:44:49.129Z,9.80
2017-09-04T02:47:16.711Z,9.40
2017-09-04T02:49:44.318Z,11.15
2017-09-04T02:52:12.673Z,8.60
2017-09-04T02:54:40.312Z,9.13
2017-09-04T02:57:08.094Z,12.40
2017-09-04T02:59:35.838Z,8.43
2017-09-04T03:02:03.422Z,10.90
2017-09-04T03:04:31.752Z,7.70
2017-09-04T03:06:59.335Z,8.67
2017-09-04T03:09:28.692Z,9.40
2017-09-04T03:12:03.445Z,8.50
2017-09-04T03:14:31.008Z,9.82
2017-09-04T03:16:59.356Z,9.70
2017-09-04T03:19:28.767Z,12.10
2017-09-04T03:21:56.572Z,9.10
2017-09-04T03:24:24.136Z,9.60
2017-09-04T03:26:51.719Z,9.07
2017-09-04T03:29:19.300Z,8.37
2017-09-04T03:31:50.372Z,10.23
2017-09-04T03:34:17.955Z,9.37
2017-09-04T03:36:45.632Z,7.80
2017-09-04T03:39:13.216Z,9.93
2017-09-04T03:41:40.779Z,11.85
2017-09-04T03:44:08.359Z,8.10
2017-09-04T03:46:35.922Z,10.98
2017-09-04T03:49:03.617Z,11.10
2017-09-04T03:51:31.184Z,11.05
2017-09-04T03:53:58.836Z,8.70
2017-09-04T03:56:28.089Z,12.85
2017-09-04T03:58:55.653Z,10.33
2017-09-04T04:01:23.216Z,11.83
2017-09-04T04:03:50.832Z,12.40
2017-09-04T04:06:18.428Z,10.37
2017-09-04T04:08:46.009Z,13.17
2017-09-04T04:11:13.616Z,14.10
2017-09-04T04:13:41.208Z,12.50
2017-09-04T04:16:08.867Z,14.30
2017-09-04T04:18:36.711Z,13.13
2017-09-04T04:21:04.368Z,13.70
2017-09-04T04:23:32.860Z,13.98
2017-09-04T04:26:00.444Z,17.77
2017-09-04T04:28:28.700Z,12.53
2017-09-04T04:30:56.360Z,15.80
2017-09-04T04:33:23.919Z,13.48
2017-09-04T04:35:51.576Z,9.00
2017-09-04T04:38:19.137Z,13.90
2017-09-04T04:40:46.799Z,12.73
2017-09-04T04:43:14.364Z,14.67
2017-09-04T04:45:45.110Z,12.57
2017-09-04T04:48:13.473Z,14.77
2017-09-04T04:50:41.294Z,12.23
2017-09-04T04:53:08.910Z,23.37
2017-09-04T04:55:36.472Z,19.50
2017-09-04T04:58:04.064Z,13.60
2017-09-04T05:00:31.680Z,11.53
2017-09-04T05:02:59.269Z,12.90
2017-09-04T05:05:27.841Z,14.80
2017-09-04T05:07:55.427Z,12.80
2017-09-04T05:10:23.235Z,12.60
2017-09-04T05:12:50.828Z,13.73
2017-09-04T05:15:18.396Z,12.30
2017-09-04T05:17:46.132Z,15.03
2017-09-04T05:20:13.692Z,13.67
2017-09-04T05:22:41.260Z,18.83
2017-09-04T05:25:08.843Z,13.20
2017-09-04T05:27:36.413Z,16.42
2017-09-04T05:30:04.348Z,14.20
2017-09-04T05:32:31.916Z,11.70
2017-09-04T05:34:59.572Z,11.77
2017-09-04T05:37:28.089Z,12.70
2017-09-04T05:39:55.648Z,12.17
2017-09-04T05:42:23.237Z,9.97
2017-09-04T05:44:50.804Z,9.73
2017-09-04T05:47:18.387Z,7.20
2017-09-04T05:49:45.951Z,7.72
2017-09-04T05:52:13.535Z,6.77
2017-09-04T05:54:41.868Z,8.60
2017-09-04T05:57:10.380Z,15.00
2017-09-04T05:59:37.952Z,11.52
2017-09-04T06:02:05.517Z,5.37
2017-09-04T06:04:33.872Z,8.52
2017-09-04T06:07:01.436Z,6.90
2017-09-04T06:09:29.019Z,7.50
2017-09-04T06:11:56.589Z,5.53
2017-09-04T06:14:24.175Z,6.20
2017-09-04T06:16:51.741Z,6.60
2017-09-04T06:19:20.112Z,6.10
2017-09-04T06:21:47.681Z,5.37
2017-09-04T06:24:15.244Z,6.80
2017-09-04T06:26:42.836Z,6.07
2017-09-04T06:29:10.400Z,6.70
2017-09-04T06:31:38.525Z,9.20
2017-09-04T06:34:06.087Z,7.80
2017-09-04T06:36:33.680Z,8.70
2017-09-04T06:39:01.242Z,5.10
2017-09-04T06:41:28.920Z,5.03
2017-09-04T06:43:56.480Z,4.93
2017-09-04T06:46:24.071Z,6.57
2017-09-04T06:48:51.636Z,6.07
2017-09-04T06:51:19.368Z,7.40
2017-09-04T06:53:46.928Z,5.27
2017-09-04T06:56:14.495Z,7.03
2017-09-04T06:58:42.083Z,6.70
2017-09-04T07:01:09.645Z,5.63
2017-09-04T07:03:37.580Z,7.03
2017-09-04T07:06:05.239Z,4.07
2017-09-04T07:08:32.907Z,3.75
2017-09-04T07:11:00.462Z,7.30
2017-09-04T07:13:28.988Z,3.33
2017-09-04T07:15:56.608Z,4.60
2017-09-04T07:18:26.282Z,4.83
2017-09-04T07:20:53.880Z,4.20
2017-09-04T07:23:21.472Z,6.10
2017-09-04T07:25:49.112Z,5.13
2017-09-04T07:28:16.726Z,4.67
2017-09-04T07:30:44.301Z,4.90
2017-09-04T07:33:12.172Z,5.00
2017-09-04T07:35:39.758Z,5.53
2017-09-04T07:38:07.333Z,3.80
2017-09-04T07:40:34.985Z,6.07
2017-09-04T07:43:02.556Z,4.37
2017-09-04T07:45:30.200Z,10.83
2017-09-04T07:47:57.859Z,5.70
2017-09-04T07:50:26.138Z,7.60
2017-09-04T07:52:53.731Z,4.90
2017-09-04T07:55:21.292Z,5.80
2017-09-04T07:57:49.644Z,6.07
2017-09-04T08:00:17.205Z,4.90
2017-09-04T08:02:44.912Z,5.73
2017-09-04T08:05:12.524Z,6.97
2017-09-04T08:07:40.083Z,5.07
2017-09-04T08:10:07.667Z,5.53
2017-09-04T08:12:35.316Z,5.75
2017-09-04T08:15:03.672Z,4.90
2017-09-04T08:17:31.247Z,4.77
2017-09-04T08:19:58.911Z,4.93
2017-09-04T08:22:28.004Z,4.20
2017-09-04T08:24:55.593Z,4.30
2017-09-04T08:27:23.927Z,5.50
2017-09-04T08:29:51.608Z,8.43
2017-09-04T08:32:19.268Z,4.67
2017-09-04T08:34:46.859Z,4.00
2017-09-04T08:37:14.501Z,4.33
2017-09-04T08:39:42.100Z,4.62
2017-09-04T08:42:09.821Z,4.57
2017-09-04T08:44:37.424Z,5.68
2017-09-04T08:47:05.002Z,5.53
2017-09-04T08:49:32.588Z,6.30
2017-09-04T08:52:00.149Z,4.63
2017-09-04T08:54:28.797Z,3.50
2017-09-04T08:56:56.409Z,6.50
2017-09-04T08:59:23.968Z,3.87
2017-09-04T09:01:51.632Z,4.20
2017-09-04T09:04:19.296Z,5.97
2017-09-04T09:06:46.884Z,4.57
2017-09-04T09:09:14.504Z,4.00
2017-09-04T09:11:42.092Z,6.53
2017-09-04T09:14:09.740Z,4.30
2017-09-04T09:16:37.400Z,6.10
2017-09-04T09:19:04.972Z,3.93
2017-09-04T09:21:32.625Z,4.90
2017-09-04T09:24:00.213Z,5.10
2017-09-04T09:26:28.885Z,3.67
2017-09-04T09:28:56.476Z,4.40
2017-09-04T09:31:24.042Z,6.17
2017-09-04T09:33:51.865Z,6.00
2017-09-04T09:36:19.436Z,3.23
2017-09-04T09:38:47.801Z,6.53
2017-09-04T09:41:15.472Z,3.23
2017-09-04T09:43:43.037Z,5.40
2017-09-04T09:46:10.704Z,9.13
2017-09-04T09:48:38.361Z,4.55
2017-09-04T09:51:05.932Z,3.30
2017-09-04T09:53:34.297Z,3.85
2017-09-04T09:56:01.864Z,3.63
2017-09-04T09:58:30.216Z,3.27
2017-09-04T10:00:57.777Z,4.73
2017-09-04T10:03:26.037Z,4.15
2017-09-04T10:05:53.632Z,5.60
2017-09-04T10:08:21.224Z,5.20
2017-09-04T10:10:48.788Z,5.32
2017-09-04T10:13:16.592Z,7.10
2017-09-04T10:15:44.156Z,4.18
2017-09-04T10:18:11.716Z,4.30
2017-09-04T10:20:39.303Z,3.90
2017-09-04T10:23:06.864Z,4.30
2017-09-04T10:25:34.464Z,2.87
2017-09-04T10:28:02.034Z,4.83
2017-09-04T10:30:30.833Z,3.92
2017-09-04T10:32:58.416Z,1.90
2017-09-04T10:35:25.981Z,3.70
2017-09-04T10:37:53.616Z,4.93
2017-09-04T10:40:21.178Z,1.70
2017-09-04T10:42:48.934Z,4.15
2017-09-04T10:45:16.496Z,3.63
2017-09-04T10:47:44.056Z,4.10
2017-09-04T10:50:11.640Z,2.97
2017-09-04T10:52:39.205Z,2.25
2017-09-04T10:55:06.793Z,2.77
2017-09-04T10:57:35.121Z,2.10
2017-09-04T11:00:02.717Z,3.37
2017-09-04T11:02:32.497Z,3.53
2017-09-04T11:05:00.092Z,1.43
2017-09-04T11:07:27.661Z,3.50
2017-09-04T11:09:56.020Z,2.90
2017-09-04T11:12:23.580Z,2.07
2017-09-04T11:14:51.164Z,3.73
2017-09-04T11:17:18.732Z,3.20
2017-09-04T11:19:46.320Z,2.17
2017-09-04T11:22:13.888Z,3.57
2017-09-04T11:24:41.476Z,3.70
2017-09-04T11:27:09.041Z,2.07
2017-09-04T11:29:36.880Z,2.92
2017-09-04T11:32:04.441Z,3.10
2017-09-04T11:34:32.005Z,3.23
2017-09-04T11:36:59.592Z,2.30
2017-09-04T11:39:27.157Z,4.23
2017-09-04T11:41:54.923Z,3.73
2017-09-04T11:44:22.484Z,2.73
2017-09-04T11:46:50.148Z,5.00
2017-09-04T11:49:17.812Z,3.50
2017-09-04T11:51:45.380Z,3.58
2017-09-04T11:54:13.136Z,5.70
2017-09-04T11:56:40.696Z,4.67
2017-09-04T11:59:08.266Z,3.00
2017-09-04T12:01:35.860Z,3.30
2017-09-04T12:04:03.481Z,2.97
2017-09-04T12:06:31.971Z,2.73
2017-09-04T12:08:59.560Z,4.13
2017-09-04T12:11:27.520Z,2.80
2017-09-04T12:13:55.259Z,3.50
2017-09-04T12:16:22.819Z,2.70
2017-09-04T12:18:50.380Z,3.30
2017-09-04T12:21:17.968Z,3.00
2017-09-04T12:23:45.526Z,2.60
2017-09-04T12:26:14.060Z,4.03
2017-09-04T12:28:41.649Z,3.70
2017-09-04T12:31:09.216Z,5.33
2017-09-04T12:33:36.864Z,2.40
2017-09-04T12:36:04.424Z,2.30
2017-09-04T12:38:32.008Z,3.53
2017-09-04T12:40:59.567Z,2.20
2017-09-04T12:43:27.928Z,2.53
2017-09-04T12:45:55.773Z,2.53
2017-09-04T12:48:23.352Z,3.80
2017-09-04T12:50:50.944Z,3.37
2017-09-04T12:53:18.504Z,3.70
2017-09-04T12:55:46.136Z,2.27
2017-09-04T12:58:13.799Z,3.03
2017-09-04T13:00:41.383Z,3.00
2017-09-04T13:03:09.019Z,3.03
2017-09-04T13:05:36.604Z,3.92
2017-09-04T13:08:04.429Z,2.93
2017-09-04T13:10:37.760Z,2.53
2017-09-04T13:13:06.263Z,2.30
2017-09-04T13:15:39.693Z,2.92
2017-09-04T13:21:13.859Z,5.27
2017-09-04T13:23:47.100Z,2.40
2017-09-04T13:26:20.420Z,2.40
2017-09-04T13:28:53.580Z,2.47
2017-09-04T13:34:38.612Z,3.20
2017-09-04T13:40:29.343Z,4.33
2017-09-04T13:43:03.251Z,2.67
2017-09-04T13:45:37.530Z,2.97
2017-09-04T13:48:07.296Z,2.50
2017-09-04T13:50:36.502Z,2.77
2017-09-04T13:53:04.068Z,2.77
2017-09-04T13:55:37.459Z,3.90
2017-09-04T13:58:21.607Z,3.77
2017-09-04T14:03:58.327Z,3.43
2017-09-04T14:09:34.008Z,3.97
2017-09-04T14:12:07.264Z,3.87
2017-09-04T14:14:40.612Z,4.37
2017-09-04T14:17:13.916Z,2.23
2017-09-04T14:19:41.476Z,3.40
2017-09-04T14:22:09.059Z,3.43
2017-09-04T14:24:36.625Z,2.78
2017-09-04T14:27:04.212Z,3.70
2017-09-04T14:29:32.544Z,4.10
2017-09-04T14:32:00.133Z,5.20
2017-09-04T14:34:27.699Z,5.13
2017-09-04T14:36:55.361Z,3.27
2017-09-04T14:39:22.919Z,3.63
2017-09-04T14:41:50.487Z,4.10
2017-09-04T14:44:34.032Z,4.30
2017-09-04T14:47:07.304Z,3.10
2017-09-04T14:49:34.887Z,2.67
2017-09-04T14:52:02.450Z,3.10
2017-09-04T14:54:32.449Z,4.28
2017-09-04T14:57:00.019Z,3.90
2017-09-04T14:59:27.608Z,3.50
2017-09-04T15:01:55.229Z,5.00
2017-09-04T15:04:22.797Z,2.90
2017-09-04T15:06:50.388Z,6.13
2017-09-04T15:09:17.950Z,4.83
2017-09-04T15:11:45.545Z,10.43
2017-09-04T15:14:13.132Z,2.43
2017-09-04T15:16:40.720Z,2.75
2017-09-04T15:19:08.288Z,3.77
2017-09-04T15:21:35.879Z,7.93
2017-09-04T15:24:03.440Z,3.03
2017-09-04T15:26:32.481Z,2.62
2017-09-04T15:29:00.280Z,2.73
2017-09-04T15:31:27.848Z,2.47
2017-09-04T15:33:55.436Z,4.03
2017-09-04T15:36:22.997Z,2.20
2017-09-04T15:38:50.592Z,3.40
2017-09-04T15:41:18.155Z,4.50
2017-09-04T15:43:46.505Z,3.63
2017-09-04T15:46:14.068Z,3.50
2017-09-04T15:48:41.668Z,3.50
2017-09-04T15:51:09.232Z,3.07
2017-09-04T15:53:36.796Z,3.03
2017-09-04T15:56:04.386Z,3.73
2017-09-04T15:58:31.949Z,3.90
2017-09-04T16:00:59.539Z,2.57
2017-09-04T16:03:27.105Z,2.63
2017-09-04T16:05:54.667Z,9.13
2017-09-04T16:08:23.161Z,5.87
2017-09-04T16:10:55.201Z,3.37
2017-09-04T16:13:26.416Z,3.27
2017-09-04T16:15:54.802Z,3.40
2017-09-04T16:18:22.825Z,3.83
2017-09-04T16:20:53.332Z,4.97
2017-09-04T16:26:25.347Z,3.20
2017-09-04T16:29:02.960Z,2.20
2017-09-04T16:34:43.135Z,6.10
2017-09-04T16:37:16.180Z,2.70
2017-09-04T16:39:47.612Z,3.55
2017-09-04T16:45:33.579Z,5.97
2017-09-04T16:48:07.483Z,5.87
2017-09-04T16:50:44.992Z,3.65
2017-09-04T16:53:15.172Z,4.10
2017-09-04T16:58:42.384Z,3.57
2017-09-04T17:01:09.979Z,2.83
2017-09-04T17:03:37.542Z,2.83
2017-09-04T17:06:05.136Z,3.23
2017-09-04T17:08:36.616Z,3.60
2017-09-04T17:11:04.676Z,3.70
2017-09-04T17:13:33.017Z,4.67
2017-09-04T17:16:01.420Z,4.67
2017-09-04T17:18:32.651Z,4.83
2017-09-04T17:21:02.729Z,3.60
2017-09-04T17:23:31.838Z,4.07
2017-09-04T17:25:59.425Z,4.50
2017-09-04T17:28:26.989Z,4.07
2017-09-04T17:30:54.572Z,4.00
2017-09-04T17:33:22.916Z,3.33
2017-09-04T17:35:50.524Z,3.17
2017-09-04T17:38:18.084Z,4.60
2017-09-04T17:40:46.416Z,4.53
2017-09-04T17:43:14.005Z,4.10
2017-09-04T17:45:41.572Z,3.10
2017-09-04T17:48:09.156Z,4.50
2017-09-04T17:50:36.720Z,4.10
2017-09-04T17:53:04.308Z,5.80
2017-09-04T17:55:31.913Z,3.73
2017-09-04T17:57:59.513Z,3.57
2017-09-04T18:00:27.076Z,4.13
2017-09-04T18:02:54.892Z,3.70
2017-09-04T18:05:22.551Z,4.23
2017-09-04T18:07:50.121Z,3.60
2017-09-04T18:10:17.709Z,4.77
2017-09-04T18:12:45.277Z,5.63
2017-09-04T18:15:12.865Z,4.10
2017-09-04T18:17:40.433Z,5.68
2017-09-04T18:20:08.024Z,4.80
2017-09-04T18:22:35.596Z,5.22
2017-09-04T18:25:03.525Z,3.97
2017-09-04T18:27:31.820Z,4.27
2017-09-04T18:29:59.403Z,5.40
2017-09-04T18:32:26.964Z,3.50
2017-09-04T18:34:54.548Z,4.20
2017-09-04T18:37:22.112Z,6.80
2017-09-04T18:39:49.933Z,4.17
2017-09-04T18:42:17.492Z,4.00
2017-09-04T18:44:45.059Z,5.03
2017-09-04T18:47:12.680Z,8.47
2017-09-04T18:49:40.256Z,4.45
2017-09-04T18:52:08.080Z,4.20
2017-09-04T18:54:35.653Z,7.65
2017-09-04T18:57:03.250Z,4.70
2017-09-04T18:59:31.651Z,5.05
2017-09-04T19:01:59.239Z,6.60
2017-09-04T19:04:26.800Z,5.60
2017-09-04T19:06:54.419Z,5.17
2017-09-04T19:09:21.981Z,5.77
2017-09-04T19:11:49.568Z,7.37
2017-09-04T19:14:18.348Z,4.97
2017-09-04T19:16:45.935Z,6.20
2017-09-04T19:19:13.564Z,6.20
2017-09-04T19:21:41.157Z,6.95
2017-09-04T19:24:08.720Z,6.10
2017-09-04T19:26:36.303Z,6.33
2017-09-04T19:29:03.862Z,6.90
2017-09-04T19:31:32.080Z,6.65
2017-09-04T19:33:59.640Z,6.83
2017-09-04T19:36:27.208Z,7.30
2017-09-04T19:38:54.800Z,6.70
2017-09-04T19:41:22.363Z,7.30
2017-09-04T19:43:49.952Z,6.57
2017-09-04T19:46:17.518Z,7.53
2017-09-04T19:48:45.104Z,5.87
2017-09-04T19:51:12.673Z,6.60
2017-09-04T19:53:40.263Z,7.00
2017-09-04T19:56:07.833Z,7.30
2017-09-04T19:58:35.420Z,8.00
2017-09-04T20:01:02.984Z,7.23
2017-09-04T20:03:31.931Z,6.75
2017-09-04T20:06:00.261Z,5.80
2017-09-04T20:08:27.853Z,6.40
2017-09-04T20:10:56.180Z,5.03
2017-09-04T20:13:23.765Z,7.17
2017-09-04T20:15:51.336Z,6.50
2017-09-04T20:18:18.935Z,7.57
2017-09-04T20:20:46.496Z,9.85
2017-09-04T20:23:14.052Z,7.43
2017-09-04T20:25:41.644Z,8.20
2017-09-04T20:28:09.216Z,7.07
2017-09-04T20:30:37.085Z,6.33
2017-09-04T20:33:04.951Z,9.43
2017-09-04T20:35:32.736Z,9.30
2017-09-04T20:38:00.297Z,6.03
2017-09-04T20:40:27.864Z,11.30
2017-09-04T20:42:55.809Z,5.43
2017-09-04T20:45:24.136Z,5.87
2017-09-04T20:47:51.732Z,6.73
2017-09-04T20:50:19.292Z,7.43
2017-09-04T20:52:46.875Z,6.63
2017-09-04T20:55:14.436Z,6.40
2017-09-04T20:57:42.300Z,11.32
2017-09-04T21:00:09.859Z,5.20
2017-09-04T21:02:37.420Z,8.60
2017-09-04T21:05:05.012Z,6.03
2017-09-04T21:07:32.571Z,7.17
2017-09-04T21:10:00.156Z,7.27
2017-09-04T21:12:27.716Z,7.53
2017-09-04T21:14:55.304Z,5.23
2017-09-04T21:17:22.875Z,6.05
2017-09-04T21:19:50.472Z,5.67
2017-09-04T21:22:18.040Z,5.40
2017-09-04T21:24:45.765Z,5.57
2017-09-04T21:27:13.356Z,6.13
2017-09-04T21:29:40.916Z,6.05
2017-09-04T21:32:08.905Z,6.50
2017-09-04T21:34:36.469Z,6.40
2017-09-04T21:37:04.083Z,7.30
2017-09-04T21:39:31.868Z,5.80
2017-09-04T21:41:59.436Z,5.63
2017-09-04T21:44:27.024Z,8.10
2017-09-04T21:46:54.643Z,5.17
2017-09-04T21:49:22.237Z,7.00
2017-09-04T21:51:49.795Z,6.20
2017-09-04T21:54:17.532Z,7.27
2017-09-04T21:56:45.198Z,8.35
2017-09-04T21:59:12.758Z,8.97
2017-09-04T22:01:40.352Z,6.80
2017-09-04T22:04:07.960Z,6.33
2017-09-04T22:06:35.519Z,6.53
2017-09-04T22:09:03.080Z,7.20
2017-09-04T22:11:31.445Z,9.38
2017-09-04T22:13:59.040Z,6.87
2017-09-04T22:16:26.905Z,10.07
2017-09-04T22:18:54.464Z,8.20
2017-09-04T22:21:22.028Z,7.00
2017-09-04T22:23:49.621Z,8.87
2017-09-04T22:26:17.949Z,6.50
2017-09-04T22:28:45.544Z,5.43
2017-09-04T22:31:13.872Z,9.07
2017-09-04T22:33:41.473Z,5.73
2017-09-04T22:36:09.136Z,7.13
2017-09-04T22:38:36.702Z,7.80
2017-09-04T22:41:04.348Z,8.10
2017-09-04T22:43:32.096Z,9.17
2017-09-04T22:45:59.659Z,7.23
2017-09-04T22:48:27.219Z,6.67
2017-09-04T22:50:55.002Z,7.40
2017-09-04T22:53:22.563Z,5.80
2017-09-04T22:55:50.408Z,7.30
2017-09-04T22:58:17.993Z,7.67
2017-09-04T23:00:45.604Z,9.07
2017-09-04T23:03:13.176Z,7.67
2017-09-04T23:05:40.735Z,6.73
2017-09-04T23:08:08.316Z,7.90
2017-09-04T23:10:35.876Z,7.20
2017-09-04T23:13:03.464Z,8.23
2017-09-04T23:15:31.940Z,8.85
2017-09-04T23:17:59.528Z,8.03
2017-09-04T23:20:28.773Z,6.57
2017-09-04T23:22:56.771Z,9.20
2017-09-04T23:25:24.336Z,5.73
2017-09-04T23:27:51.924Z,8.37
2017-09-04T23:30:19.489Z,6.93
2017-09-04T23:32:47.100Z,8.20
2017-09-04T23:35:14.659Z,9.53
2017-09-04T23:37:42.224Z,11.43
2017-09-04T23:40:09.812Z,7.60
2017-09-04T23:42:37.380Z,7.40
2017-09-04T23:45:04.985Z,7.03
2017-09-04T23:47:32.571Z,8.90
2017-09-04T23:50:00.136Z,11.60
2017-09-04T23:52:27.719Z,8.50
2017-09-04T23:54:55.284Z,9.90
2017-09-04T23:57:22.868Z,9.93
2017-09-04T23:59:50.458Z,9.60
